createdAt,value
2023-02-08T00:02:20.071Z,19.60
2023-02-08T00:08:23.498Z,19.70
2023-02-08T00:14:26.918Z,18.27
2023-02-08T00:20:32.332Z,18.27
2023-02-08T00:26:35.736Z,18.87
2023-02-08T00:32:39.134Z,18.60
2023-02-08T00:38:43.907Z,16.77
2023-02-08T00:44:47.318Z,17.93
2023-02-08T00:50:58.796Z,18.17
2023-02-08T00:57:03.586Z,17.90
2023-02-08T01:03:07.167Z,16.40
2023-02-08T01:09:10.554Z,16.80
2023-02-08T01:15:15.369Z,17.43
2023-02-08T01:21:19.566Z,16.70
2023-02-08T01:27:22.966Z,18.47
2023-02-08T01:33:27.968Z,17.90
2023-02-08T01:39:31.494Z,17.43
2023-02-08T01:45:34.865Z,35.93
2023-02-08T01:51:41.487Z,17.93
2023-02-08T01:57:45.636Z,18.17
2023-02-08T02:03:49.173Z,16.83
2023-02-08T02:09:55.389Z,17.27
2023-02-08T02:15:58.954Z,18.20
2023-02-08T02:22:07.377Z,17.83
2023-02-08T02:28:20.257Z,17.13
2023-02-08T02:34:28.103Z,16.13
2023-02-08T02:40:36.315Z,16.97
2023-02-08T02:46:42.296Z,17.33
2023-02-08T02:52:48.670Z,16.80
2023-02-08T02:58:53.123Z,16.80
2023-02-08T03:04:57.614Z,16.50
2023-02-08T03:11:20.248Z,16.00
2023-02-08T03:17:36.647Z,15.67
2023-02-08T03:23:43.040Z,16.53
2023-02-08T03:29:51.873Z,17.13
2023-02-08T03:35:57.501Z,17.23
2023-02-08T03:42:02.260Z,16.90
2023-02-08T03:48:08.902Z,16.07
2023-02-08T03:54:14.276Z,17.80
2023-02-08T04:00:19.083Z,16.67
2023-02-08T04:06:23.890Z,16.87
2023-02-08T04:12:27.305Z,18.83
2023-02-08T04:18:30.852Z,17.90
2023-02-08T04:24:35.702Z,15.27
2023-02-08T04:30:39.403Z,15.30
2023-02-08T04:36:43.321Z,14.80
2023-02-08T04:42:48.068Z,15.60
2023-02-08T04:48:51.684Z,16.00
2023-02-08T04:54:55.045Z,14.77
2023-02-08T05:00:59.899Z,15.33
2023-02-08T05:07:03.507Z,15.10
2023-02-08T05:13:06.870Z,14.27
2023-02-08T05:19:12.733Z,15.03
2023-02-08T05:25:18.095Z,14.27
2023-02-08T05:31:22.853Z,14.20
2023-02-08T05:37:27.835Z,14.90
2023-02-08T05:43:31.584Z,14.63
2023-02-08T05:49:34.977Z,13.77
2023-02-08T05:55:39.782Z,15.53
2023-02-08T06:01:43.172Z,15.50
2023-02-08T06:07:46.895Z,15.77
2023-02-08T06:13:51.664Z,16.03
2023-02-08T06:19:55.127Z,16.40
2023-02-08T06:25:58.605Z,19.63
2023-02-08T06:32:03.700Z,19.80
2023-02-08T06:38:07.322Z,20.60
2023-02-08T06:44:10.808Z,21.13
2023-02-08T06:50:15.940Z,20.23
2023-02-08T06:56:19.431Z,19.13
2023-02-08T07:02:23.264Z,19.10
2023-02-08T07:08:28.109Z,17.67
2023-02-08T07:14:31.485Z,17.43
2023-02-08T07:20:34.907Z,17.43
2023-02-08T07:26:39.819Z,17.83
2023-02-08T07:32:43.215Z,19.03
2023-02-08T07:38:46.628Z,19.00
2023-02-08T07:44:51.800Z,17.47
2023-02-08T07:50:55.268Z,26.83
2023-02-08T07:56:59.012Z,25.95
2023-02-08T08:03:04.467Z,20.67
2023-02-08T08:09:07.934Z,20.67
2023-02-08T08:15:11.836Z,29.23
2023-02-08T08:21:17.292Z,22.87
2023-02-08T08:27:20.698Z,22.27
2023-02-08T08:33:24.146Z,23.23
2023-02-08T08:39:29.541Z,21.30
2023-02-08T08:45:32.913Z,22.57
2023-02-08T08:51:36.385Z,23.17
2023-02-08T08:57:41.119Z,24.20
2023-02-08T09:03:44.583Z,24.93
2023-02-08T09:09:48.678Z,25.57
2023-02-08T09:15:53.453Z,27.63
2023-02-08T09:21:57.979Z,27.77
2023-02-08T09:28:01.460Z,22.93
2023-02-08T09:34:07.455Z,27.05
2023-02-08T09:40:16.301Z,20.37
2023-02-08T09:46:21.113Z,20.20
2023-02-08T09:52:27.927Z,19.53
2023-02-08T09:58:34.998Z,21.60
2023-02-08T10:04:43.726Z,22.10
2023-02-08T10:10:53.081Z,22.90
2023-02-08T10:17:02.382Z,25.37
2023-02-08T10:23:10.590Z,21.45
2023-02-08T10:29:28.845Z,20.15
2023-02-08T10:35:37.400Z,22.13
2023-02-08T10:41:40.939Z,29.27
2023-02-08T10:47:46.023Z,18.83
2023-02-08T10:53:51.034Z,18.33
2023-02-08T10:59:56.767Z,13.80
2023-02-08T11:06:00.252Z,14.02
2023-02-08T11:12:05.108Z,16.80
2023-02-08T11:18:09.301Z,16.27
2023-02-08T11:24:26.140Z,15.38
2023-02-08T11:30:31.098Z,10.90
2023-02-08T11:36:36.126Z,9.40
2023-02-08T11:42:44.253Z,9.32
2023-02-08T11:48:52.234Z,10.32
2023-02-08T11:54:56.277Z,9.77
2023-02-08T12:01:01.058Z,10.73
2023-02-08T12:07:22.855Z,10.65
2023-02-08T12:13:38.509Z,9.82
2023-02-08T12:20:02.975Z,9.32
2023-02-08T12:26:12.941Z,9.05
2023-02-08T12:32:25.823Z,8.85
2023-02-08T12:38:52.335Z,9.43
2023-02-08T12:45:05.437Z,9.73
2023-02-08T12:51:13.848Z,10.43
2023-02-08T12:57:19.519Z,8.68
2023-02-08T13:03:31.939Z,8.95
2023-02-08T13:09:41.008Z,8.30
2023-02-08T13:15:46.312Z,8.77
2023-02-08T13:21:53.678Z,7.15
2023-02-08T13:27:57.172Z,7.13
2023-02-08T13:34:03.880Z,6.90
2023-02-08T13:40:10.683Z,5.45
2023-02-08T13:46:14.480Z,5.88
2023-02-08T13:52:49.021Z,5.65
2023-02-08T13:59:02.866Z,5.45
2023-02-08T14:05:25.070Z,5.25
2023-02-08T14:11:33.739Z,4.55
2023-02-08T14:17:38.744Z,5.28
2023-02-08T14:23:42.260Z,4.03
2023-02-08T14:29:45.677Z,3.80
2023-02-08T14:35:55.615Z,4.03
2023-02-08T14:42:05.423Z,4.60
2023-02-08T14:48:21.622Z,3.58
2023-02-08T14:54:29.315Z,4.05
2023-02-08T15:00:35.500Z,4.30
2023-02-08T15:06:56.652Z,3.78
2023-02-08T15:13:06.479Z,4.20
2023-02-08T15:19:10.675Z,3.85
2023-02-08T15:25:25.068Z,5.00
2023-02-08T15:31:31.953Z,5.55
2023-02-08T15:37:36.588Z,4.63
2023-02-08T15:43:40.954Z,5.03
2023-02-08T15:49:46.936Z,4.70
2023-02-08T15:55:52.191Z,5.97
2023-02-08T16:01:55.970Z,4.40
2023-02-08T16:08:01.151Z,3.83
2023-02-08T16:14:07.806Z,5.25
2023-02-08T16:20:25.972Z,6.55
2023-02-08T16:26:35.192Z,3.60
2023-02-08T16:32:39.939Z,3.67
2023-02-08T16:38:43.475Z,3.88
2023-02-08T16:45:01.319Z,4.30
2023-02-08T16:51:06.034Z,12.48
2023-02-08T16:57:09.960Z,9.68
2023-02-08T17:03:14.828Z,9.98
2023-02-08T17:09:18.234Z,9.18
2023-02-08T17:15:22.513Z,9.57
2023-02-08T17:21:27.424Z,6.85
2023-02-08T17:27:31.992Z,7.82
2023-02-08T17:33:40.059Z,14.43
2023-02-08T17:39:44.899Z,10.85
2023-02-08T17:45:48.355Z,10.25
2023-02-08T17:51:51.957Z,7.50
2023-02-08T17:57:57.115Z,9.02
2023-02-08T18:04:02.263Z,7.85
2023-02-08T18:10:05.640Z,7.60
2023-02-08T18:16:10.976Z,7.80
2023-02-08T18:22:14.657Z,7.30
2023-02-08T18:28:18.081Z,8.88
2023-02-08T18:34:22.878Z,16.63
2023-02-08T18:40:26.636Z,10.95
2023-02-08T18:46:30.467Z,13.55
2023-02-08T18:52:35.824Z,15.32
2023-02-08T18:58:39.286Z,18.10
2023-02-08T19:04:42.778Z,17.35
2023-02-08T19:10:47.581Z,15.70
2023-02-08T19:16:50.988Z,16.45
2023-02-08T19:22:54.368Z,14.52
2023-02-08T19:28:59.758Z,12.93
2023-02-08T19:35:03.603Z,14.95
2023-02-08T19:41:07.420Z,16.35
2023-02-08T19:47:12.485Z,15.30
2023-02-08T19:53:15.960Z,19.42
2023-02-08T19:59:20.581Z,15.38
2023-02-08T20:05:25.373Z,14.90
2023-02-08T20:11:30.054Z,13.95
2023-02-08T20:17:33.598Z,14.38
2023-02-08T20:23:38.914Z,19.08
2023-02-08T20:29:42.468Z,19.40
2023-02-08T20:35:46.616Z,18.58
2023-02-08T20:41:51.383Z,18.58
2023-02-08T20:47:54.897Z,18.15
2023-02-08T20:53:59.527Z,17.42
2023-02-08T21:00:05.070Z,16.80
2023-02-08T21:06:13.937Z,15.77
2023-02-08T21:12:17.497Z,15.75
2023-02-08T21:18:22.465Z,15.85
2023-02-08T21:24:26.850Z,16.05
2023-02-08T21:30:30.355Z,16.30
2023-02-08T21:36:35.302Z,16.05
2023-02-08T21:42:38.896Z,17.58
2023-02-08T21:49:00.422Z,21.35
2023-02-08T21:55:05.227Z,16.15
2023-02-08T22:01:08.703Z,16.88
2023-02-08T22:07:12.350Z,46.50
2023-02-08T22:13:17.229Z,19.88
2023-02-08T22:19:20.708Z,25.08
2023-02-08T22:25:24.926Z,17.35
2023-02-08T22:31:29.894Z,17.77
2023-02-08T22:37:34.736Z,16.15
2023-02-08T22:43:38.123Z,15.20
2023-02-08T22:49:42.939Z,16.03
2023-02-08T22:55:50.661Z,16.27
2023-02-08T23:01:54.340Z,14.80
2023-02-08T23:07:59.168Z,14.53
2023-02-08T23:14:02.686Z,14.63
2023-02-08T23:20:06.207Z,15.50
2023-02-08T23:26:11.744Z,15.33
2023-02-08T23:32:15.192Z,15.00
2023-02-08T23:38:18.648Z,15.70
2023-02-08T23:44:23.569Z,14.90
2023-02-08T23:50:27.179Z,14.57
2023-02-08T23:56:31.964Z,14.83
